createdAt,value
2018-06-25T00:00:46.642Z,94.02
2018-06-25T00:03:15.015Z,94.02
2018-06-25T00:05:43.394Z,93.86
2018-06-25T00:09:41.274Z,94.10
2018-06-25T00:12:09.576Z,93.83
2018-06-25T00:14:37.913Z,94.03
2018-06-25T00:17:06.308Z,93.87
2018-06-25T00:19:34.786Z,94.15
2018-06-25T00:22:03.172Z,94.45
2018-06-25T00:24:31.550Z,94.41
2018-06-25T00:26:59.868Z,94.78
2018-06-25T00:29:28.328Z,94.55
2018-06-25T00:31:56.695Z,94.55
2018-06-25T00:34:25.042Z,94.41
2018-06-25T00:36:53.428Z,94.51
2018-06-25T00:39:21.743Z,94.26
2018-06-25T00:41:53.682Z,94.37
2018-06-25T00:44:22.142Z,94.56
2018-06-25T00:46:50.531Z,94.70
2018-06-25T00:49:18.906Z,94.56
2018-06-25T00:51:47.244Z,94.55
2018-06-25T00:54:15.534Z,94.81
2018-06-25T00:56:43.909Z,94.12
2018-06-25T00:59:23.391Z,94.64
2018-06-25T01:01:52.129Z,94.15
2018-06-25T01:04:20.514Z,94.33
2018-06-25T01:06:48.842Z,94.55
2018-06-25T01:09:17.368Z,94.34
2018-06-25T01:11:45.717Z,94.78
2018-06-25T01:14:14.081Z,94.31
2018-06-25T01:16:42.397Z,94.24
2018-06-25T01:19:10.854Z,94.28
2018-06-25T01:21:39.170Z,94.08
2018-06-25T01:24:07.532Z,93.74
2018-06-25T01:26:35.875Z,93.92
2018-06-25T01:29:04.325Z,93.97
2018-06-25T01:31:32.673Z,94.34
2018-06-25T01:34:00.966Z,94.42
2018-06-25T01:36:29.324Z,94.28
2018-06-25T01:38:57.913Z,94.39
2018-06-25T01:41:26.250Z,94.39
2018-06-25T01:43:54.638Z,94.08
2018-06-25T01:46:23.010Z,94.17
2018-06-25T01:48:51.384Z,93.92
2018-06-25T01:51:19.764Z,93.97
2018-06-25T01:53:48.904Z,93.84
2018-06-25T01:56:17.306Z,93.90
2018-06-25T01:58:45.774Z,93.92
2018-06-25T02:01:14.210Z,93.67
2018-06-25T02:03:42.560Z,93.73
2018-06-25T02:06:10.982Z,93.65
2018-06-25T02:08:39.434Z,94.01
2018-06-25T02:11:07.874Z,94.14
2018-06-25T02:13:36.451Z,94.06
2018-06-25T02:16:04.860Z,93.87
2018-06-25T02:18:33.218Z,94.40
2018-06-25T02:21:01.590Z,94.51
2018-06-25T02:23:29.956Z,93.93
2018-06-25T02:25:58.288Z,93.75
2018-06-25T02:28:26.672Z,93.69
2018-06-25T02:30:55.037Z,94.07
2018-06-25T02:33:23.405Z,93.92
2018-06-25T02:35:51.773Z,93.71
2018-06-25T02:38:20.255Z,93.76
2018-06-25T02:40:48.599Z,93.50
2018-06-25T02:43:16.911Z,93.68
2018-06-25T02:45:45.288Z,93.91
2018-06-25T02:48:13.764Z,93.73
2018-06-25T02:50:42.140Z,93.84
2018-06-25T02:53:10.638Z,94.21
2018-06-25T02:55:38.968Z,93.92
2018-06-25T02:58:07.382Z,93.58
2018-06-25T03:00:35.730Z,93.62
2018-06-25T03:03:04.204Z,93.91
2018-06-25T03:05:32.541Z,93.80
2018-06-25T03:08:00.970Z,93.61
2018-06-25T03:10:29.329Z,93.62
2018-06-25T03:12:57.749Z,93.37
2018-06-25T03:15:26.080Z,93.53
2018-06-25T03:17:54.537Z,93.45
2018-06-25T03:20:23.158Z,93.24
2018-06-25T03:22:51.502Z,93.00
2018-06-25T03:25:20.029Z,92.89
2018-06-25T03:27:48.394Z,92.93
2018-06-25T03:30:16.844Z,92.90
2018-06-25T03:32:45.274Z,92.78
2018-06-25T03:35:13.692Z,92.92
2018-06-25T03:37:42.119Z,92.98
2018-06-25T03:40:10.450Z,92.70
2018-06-25T03:42:38.902Z,92.55
2018-06-25T03:45:07.325Z,92.62
2018-06-25T03:47:35.828Z,92.62
2018-06-25T03:50:04.182Z,92.88
2018-06-25T03:52:32.446Z,92.79
2018-06-25T03:55:00.758Z,93.19
2018-06-25T03:57:29.118Z,92.86
2018-06-25T03:59:57.716Z,92.60
2018-06-25T04:02:26.156Z,92.83
2018-06-25T04:04:54.453Z,92.87
2018-06-25T04:07:22.816Z,92.66
2018-06-25T04:09:51.278Z,92.35
2018-06-25T04:12:19.676Z,92.61
2018-06-25T04:14:48.092Z,92.54
2018-06-25T04:17:16.596Z,92.78
2018-06-25T04:19:44.972Z,92.84
2018-06-25T04:22:13.335Z,92.80
2018-06-25T04:24:42.634Z,92.55
2018-06-25T04:27:11.090Z,92.55
2018-06-25T04:29:44.485Z,92.42
2018-06-25T04:32:12.854Z,92.47
2018-06-25T04:34:41.334Z,92.38
2018-06-25T04:37:09.694Z,92.55
2018-06-25T04:39:38.060Z,92.41
2018-06-25T04:42:06.511Z,92.25
2018-06-25T04:44:34.930Z,92.26
2018-06-25T04:47:10.227Z,91.98
2018-06-25T04:49:38.822Z,91.85
2018-06-25T04:52:07.284Z,91.38
2018-06-25T04:54:36.793Z,91.12
2018-06-25T04:57:05.435Z,90.89
2018-06-25T04:59:33.897Z,90.97
2018-06-25T05:02:02.246Z,90.89
2018-06-25T05:04:30.986Z,91.13
2018-06-25T05:06:59.356Z,91.32
2018-06-25T05:09:27.702Z,91.03
2018-06-25T05:11:56.072Z,90.95
2018-06-25T05:14:24.412Z,90.93
2018-06-25T05:16:52.813Z,90.95
2018-06-25T05:19:21.355Z,90.73
2018-06-25T05:21:49.786Z,90.47
2018-06-25T05:24:18.209Z,89.78
2018-06-25T05:26:46.646Z,89.29
2018-06-25T05:29:15.415Z,89.22
2018-06-25T05:31:43.733Z,89.12
2018-06-25T05:34:12.177Z,89.16
2018-06-25T05:36:40.574Z,89.37
2018-06-25T05:39:10.548Z,89.32
2018-06-25T05:41:38.949Z,88.97
2018-06-25T05:44:07.442Z,88.54
2018-06-25T05:46:36.116Z,88.75
2018-06-25T05:49:04.512Z,88.80
2018-06-25T05:51:32.895Z,88.72
2018-06-25T05:54:01.294Z,88.24
2018-06-25T05:56:29.727Z,88.18
2018-06-25T05:58:58.335Z,88.74
2018-06-25T06:01:27.132Z,88.33
2018-06-25T06:03:55.563Z,89.06
2018-06-25T06:06:24.087Z,88.94
2018-06-25T06:08:52.586Z,88.97
2018-06-25T06:11:21.102Z,88.21
2018-06-25T06:13:49.417Z,87.91
2018-06-25T06:16:17.826Z,87.98
2018-06-25T06:18:46.292Z,87.88
2018-06-25T06:21:14.778Z,88.08
2018-06-25T06:23:43.197Z,87.64
2018-06-25T06:26:11.648Z,86.81
2018-06-25T06:28:40.108Z,86.98
2018-06-25T06:31:08.639Z,86.19
2018-06-25T06:33:37.076Z,86.55
2018-06-25T06:36:05.618Z,86.86
2018-06-25T06:38:34.060Z,86.83
2018-06-25T06:41:02.457Z,86.83
2018-06-25T06:43:30.932Z,85.92
2018-06-25T06:45:59.468Z,85.60
2018-06-25T06:48:27.934Z,85.30
2018-06-25T06:50:56.487Z,85.54
2018-06-25T06:53:24.950Z,85.31
2018-06-25T06:55:53.327Z,84.53
2018-06-25T06:58:21.884Z,84.15
2018-06-25T07:00:50.342Z,84.38
2018-06-25T07:03:19.512Z,83.97
2018-06-25T07:05:48.706Z,83.83
2018-06-25T07:08:17.338Z,83.60
2018-06-25T07:10:45.706Z,83.20
2018-06-25T07:13:14.129Z,82.73
2018-06-25T07:15:46.202Z,81.79
2018-06-25T07:18:14.924Z,82.25
2018-06-25T07:20:43.382Z,81.98
2018-06-25T07:23:11.842Z,82.55
2018-06-25T07:25:40.412Z,82.46
2018-06-25T07:28:08.800Z,81.78
2018-06-25T07:30:37.352Z,82.00
2018-06-25T07:33:06.128Z,81.15
2018-06-25T07:35:34.498Z,81.36
2018-06-25T07:38:02.960Z,80.47
2018-06-25T07:40:31.287Z,80.92
2018-06-25T07:42:59.726Z,79.80
2018-06-25T07:45:28.114Z,79.41
2018-06-25T07:47:56.646Z,79.79
2018-06-25T07:50:25.292Z,78.48
2018-06-25T07:52:53.664Z,78.53
2018-06-25T07:55:22.201Z,77.78
2018-06-25T07:57:50.715Z,75.92
2018-06-25T08:00:20.362Z,74.16
2018-06-25T08:02:48.732Z,73.78
2018-06-25T08:05:17.224Z,73.41
2018-06-25T08:07:50.800Z,73.26
2018-06-25T08:10:19.866Z,73.08
2018-06-25T08:12:48.474Z,72.46
2018-06-25T08:15:17.222Z,72.90
2018-06-25T08:17:45.704Z,71.77
2018-06-25T08:20:14.426Z,70.81
2018-06-25T08:22:42.906Z,70.09
2018-06-25T08:25:11.199Z,70.21
2018-06-25T08:27:39.562Z,69.83
2018-06-25T08:30:08.004Z,71.49
2018-06-25T08:32:36.318Z,71.83
2018-06-25T08:35:04.693Z,72.43
2018-06-25T08:37:33.078Z,72.92
2018-06-25T08:40:01.398Z,71.90
2018-06-25T08:42:33.776Z,71.11
2018-06-25T08:45:03.480Z,70.88
2018-06-25T08:47:39.820Z,71.11
2018-06-25T08:50:09.334Z,69.83
2018-06-25T08:52:48.585Z,68.80
2018-06-25T08:55:17.093Z,67.21
2018-06-25T08:57:45.504Z,67.33
2018-06-25T09:00:13.897Z,67.47
2018-06-25T09:02:42.355Z,65.91
2018-06-25T09:05:11.142Z,64.96
2018-06-25T09:07:39.450Z,65.23
2018-06-25T09:10:07.908Z,65.89
2018-06-25T09:12:36.178Z,66.09
2018-06-25T09:15:04.874Z,66.08
2018-06-25T09:17:33.172Z,65.48
2018-06-25T09:20:01.681Z,65.31
2018-06-25T09:22:30.232Z,65.09
2018-06-25T09:24:58.592Z,63.71
2018-06-25T09:27:26.992Z,62.96
2018-06-25T09:29:55.521Z,64.08
2018-06-25T09:32:23.800Z,62.60
2018-06-25T09:34:52.174Z,61.53
2018-06-25T09:37:20.586Z,61.16
2018-06-25T09:39:49.014Z,60.26
2018-06-25T09:42:17.366Z,60.03
2018-06-25T09:44:45.722Z,60.55
2018-06-25T09:47:14.062Z,60.36
2018-06-25T09:49:42.436Z,60.34
2018-06-25T09:52:10.879Z,60.52
2018-06-25T09:54:39.277Z,60.75
2018-06-25T09:57:07.773Z,60.21
2018-06-25T09:59:36.277Z,59.17
2018-06-25T10:02:04.734Z,59.81
2018-06-25T10:04:33.124Z,59.91
2018-06-25T10:07:01.588Z,60.10
2018-06-25T10:09:30.066Z,60.13
2018-06-25T10:11:58.440Z,59.36
2018-06-25T10:14:26.880Z,58.15
2018-06-25T10:16:55.300Z,58.87
2018-06-25T10:19:24.065Z,56.53
2018-06-25T10:21:52.754Z,56.17
2018-06-25T10:24:21.127Z,55.90
2018-06-25T10:26:49.847Z,56.25
2018-06-25T10:29:18.630Z,56.53
2018-06-25T10:31:47.045Z,54.99
2018-06-25T10:34:15.470Z,53.50
2018-06-25T10:36:44.044Z,53.31
2018-06-25T10:39:13.038Z,53.19
2018-06-25T10:41:41.518Z,52.30
2018-06-25T10:44:10.104Z,51.55
2018-06-25T10:46:38.553Z,50.58
2018-06-25T10:49:06.986Z,51.73
2018-06-25T10:51:35.788Z,51.80
2018-06-25T10:54:04.490Z,52.14
2018-06-25T10:56:32.970Z,52.45
2018-06-25T10:59:01.414Z,53.52
2018-06-25T11:01:29.752Z,53.68
2018-06-25T11:03:58.153Z,53.23
2018-06-25T11:06:26.592Z,52.39
2018-06-25T11:08:55.540Z,53.06
2018-06-25T11:11:23.993Z,53.39
2018-06-25T11:13:52.977Z,54.76
2018-06-25T11:16:21.432Z,55.32
2018-06-25T11:18:50.209Z,54.29
2018-06-25T11:21:19.158Z,53.64
2018-06-25T11:23:47.550Z,52.32
2018-06-25T11:26:27.716Z,51.20
2018-06-25T11:28:56.128Z,49.65
2018-06-25T11:31:26.928Z,48.61
2018-06-25T11:33:55.917Z,48.74
2018-06-25T11:36:24.329Z,48.70
2018-06-25T11:38:52.798Z,49.82
2018-06-25T11:41:21.155Z,49.10
2018-06-25T11:43:50.553Z,48.24
2018-06-25T11:46:18.984Z,48.16
2018-06-25T11:48:47.323Z,48.26
2018-06-25T11:51:15.795Z,47.17
2018-06-25T11:53:44.340Z,45.73
2018-06-25T11:56:12.810Z,46.76
2018-06-25T11:58:41.164Z,46.51
2018-06-25T12:01:09.929Z,47.03
2018-06-25T12:03:38.354Z,47.62
2018-06-25T12:06:07.549Z,47.07
2018-06-25T12:08:39.341Z,44.77
2018-06-25T12:11:07.782Z,44.44
2018-06-25T12:13:36.175Z,44.61
2018-06-25T12:16:04.961Z,43.29
2018-06-25T12:18:33.560Z,44.22
2018-06-25T12:21:01.966Z,44.85
2018-06-25T12:23:30.647Z,43.19
2018-06-25T12:25:59.046Z,43.93
2018-06-25T12:28:27.682Z,44.13
2018-06-25T12:30:56.057Z,43.14
2018-06-25T12:33:24.471Z,44.46
2018-06-25T12:35:53.054Z,42.32
2018-06-25T12:38:21.685Z,42.11
2018-06-25T12:40:50.061Z,42.09
2018-06-25T12:43:18.500Z,41.10
2018-06-25T12:45:46.837Z,41.06
2018-06-25T12:48:14.565Z,40.99
2018-06-25T12:50:42.949Z,40.76
2018-06-25T12:53:11.377Z,40.30
2018-06-25T12:55:39.877Z,40.62
2018-06-25T12:58:08.522Z,40.66
2018-06-25T13:00:36.906Z,42.79
2018-06-25T13:03:05.342Z,43.51
2018-06-25T13:05:34.368Z,42.60
2018-06-25T13:08:02.977Z,42.83
2018-06-25T13:10:31.346Z,42.77
2018-06-25T13:12:59.827Z,43.88
2018-06-25T13:15:28.447Z,44.61
2018-06-25T13:17:57.241Z,43.90
2018-06-25T13:20:25.748Z,44.58
2018-06-25T13:22:54.226Z,45.15
2018-06-25T13:25:22.891Z,44.84
2018-06-25T13:27:51.465Z,43.74
2018-06-25T13:30:19.934Z,43.82
2018-06-25T13:32:48.435Z,44.76
2018-06-25T13:35:16.935Z,44.52
2018-06-25T13:37:48.767Z,44.40
2018-06-25T13:40:17.233Z,43.30
2018-06-25T13:42:47.555Z,43.61
2018-06-25T13:45:17.469Z,43.99
2018-06-25T13:47:47.677Z,44.05
2018-06-25T13:50:21.011Z,44.34
2018-06-25T13:52:50.792Z,43.29
2018-06-25T13:55:19.154Z,43.42
2018-06-25T13:57:47.734Z,43.09
2018-06-25T14:00:16.247Z,43.20
2018-06-25T14:02:44.621Z,42.79
2018-06-25T14:05:13.029Z,41.53
2018-06-25T14:07:41.401Z,41.06
2018-06-25T14:10:09.903Z,40.42
2018-06-25T14:12:38.371Z,40.33
2018-06-25T14:15:07.546Z,40.16
2018-06-25T14:17:36.025Z,40.98
2018-06-25T14:20:04.438Z,41.68
2018-06-25T14:22:32.934Z,42.43
2018-06-25T14:25:02.257Z,41.17
2018-06-25T14:27:35.952Z,41.68
2018-06-25T14:30:09.186Z,41.28
2018-06-25T14:32:37.706Z,40.95
2018-06-25T14:35:11.530Z,40.92
2018-06-25T14:37:40.031Z,40.79
2018-06-25T14:40:08.492Z,40.44
2018-06-25T14:42:36.941Z,40.14
2018-06-25T14:45:05.494Z,40.54
2018-06-25T14:47:33.862Z,41.50
2018-06-25T14:50:02.390Z,41.28
2018-06-25T14:52:30.921Z,41.49
2018-06-25T14:54:59.408Z,42.27
2018-06-25T14:57:27.911Z,42.43
2018-06-25T14:59:56.598Z,43.07
2018-06-25T15:02:25.062Z,42.37
2018-06-25T15:04:53.433Z,42.68
2018-06-25T15:07:22.114Z,42.14
2018-06-25T15:09:50.521Z,41.27
2018-06-25T15:12:18.825Z,41.18
2018-06-25T15:14:47.353Z,42.04
2018-06-25T15:17:16.062Z,42.35
2018-06-25T15:19:44.742Z,41.74
2018-06-25T15:22:13.112Z,40.75
2018-06-25T15:24:41.527Z,40.19
2018-06-25T15:27:10.288Z,39.98
2018-06-25T15:29:38.835Z,40.66
2018-06-25T15:32:07.230Z,41.46
2018-06-25T15:34:35.615Z,41.58
2018-06-25T15:37:04.023Z,40.65
2018-06-25T15:39:32.467Z,40.29
2018-06-25T15:42:00.929Z,42.05
2018-06-25T15:44:29.681Z,41.78
2018-06-25T15:46:58.096Z,42.23
2018-06-25T15:49:26.898Z,42.51
2018-06-25T15:51:55.286Z,41.84
2018-06-25T15:54:23.688Z,41.43
2018-06-25T15:56:52.020Z,42.95
2018-06-25T15:59:20.449Z,42.66
2018-06-25T16:01:50.577Z,42.25
2018-06-25T16:04:19.020Z,42.14
2018-06-25T16:06:47.431Z,42.19
2018-06-25T16:09:15.759Z,43.67
2018-06-25T16:11:44.180Z,43.28
2018-06-25T16:14:12.595Z,43.57
2018-06-25T16:16:40.949Z,44.22
2018-06-25T16:19:10.191Z,44.07
2018-06-25T16:21:39.499Z,43.79
2018-06-25T16:24:08.047Z,43.76
2018-06-25T16:26:36.601Z,45.11
2018-06-25T16:29:05.453Z,45.17
2018-06-25T16:31:34.109Z,46.56
2018-06-25T16:34:03.651Z,47.96
2018-06-25T16:36:33.756Z,48.46
2018-06-25T16:39:02.388Z,48.51
2018-06-25T16:41:30.913Z,49.52
2018-06-25T16:43:59.522Z,49.30
2018-06-25T16:46:28.099Z,50.19
2018-06-25T16:48:56.736Z,50.06
2018-06-25T16:51:25.274Z,49.58
2018-06-25T16:53:53.821Z,49.80
2018-06-25T16:56:22.911Z,49.34
2018-06-25T16:58:52.513Z,49.46
2018-06-25T17:01:21.587Z,49.70
2018-06-25T17:03:50.846Z,49.36
2018-06-25T17:06:19.425Z,49.06
2018-06-25T17:08:48.724Z,49.56
2018-06-25T17:11:18.250Z,49.63
2018-06-25T17:13:49.105Z,50.00
2018-06-25T17:16:18.252Z,50.63
2018-06-25T17:18:46.677Z,51.36
2018-06-25T17:21:15.208Z,51.80
2018-06-25T17:23:43.669Z,52.04
2018-06-25T17:26:13.696Z,52.19
2018-06-25T17:28:42.253Z,52.34
2018-06-25T17:31:10.862Z,51.71
2018-06-25T17:33:39.362Z,52.36
2018-06-25T17:36:07.749Z,52.70
2018-06-25T17:38:36.231Z,53.05
2018-06-25T17:41:04.661Z,53.32
2018-06-25T17:43:33.111Z,53.71
2018-06-25T17:46:01.534Z,53.76
2018-06-25T17:48:30.042Z,54.08
2018-06-25T17:50:58.443Z,53.72
2018-06-25T17:53:27.056Z,53.37
2018-06-25T17:55:55.509Z,53.75
2018-06-25T17:58:23.969Z,54.49
2018-06-25T18:00:52.584Z,54.68
2018-06-25T18:03:21.095Z,54.96
2018-06-25T18:05:49.483Z,55.52
2018-06-25T18:08:17.982Z,55.73
2018-06-25T18:10:46.321Z,54.64
2018-06-25T18:13:15.309Z,54.84
2018-06-25T18:15:43.725Z,54.90
2018-06-25T18:18:12.515Z,55.62
2018-06-25T18:20:41.044Z,55.60
2018-06-25T18:23:09.674Z,56.63
2018-06-25T18:25:38.055Z,56.89
2018-06-25T18:28:06.468Z,57.42
2018-06-25T18:30:35.097Z,57.88
2018-06-25T18:33:03.532Z,58.07
2018-06-25T18:35:32.059Z,58.38
2018-06-25T18:38:00.625Z,58.91
2018-06-25T18:40:29.079Z,58.64
2018-06-25T18:42:58.085Z,58.64
2018-06-25T18:45:26.553Z,59.04
2018-06-25T18:47:54.973Z,58.90
2018-06-25T18:50:23.332Z,58.64
2018-06-25T18:52:51.879Z,58.07
2018-06-25T18:55:21.403Z,58.09
2018-06-25T18:57:49.910Z,58.46
2018-06-25T19:00:18.315Z,58.39
2018-06-25T19:02:47.479Z,58.85
2018-06-25T19:05:15.965Z,59.51
2018-06-25T19:07:44.429Z,59.51
2018-06-25T19:10:12.897Z,59.68
2018-06-25T19:12:41.409Z,59.41
2018-06-25T19:15:09.947Z,60.21
2018-06-25T19:17:38.493Z,60.46
2018-06-25T19:20:07.178Z,60.35
2018-06-25T19:22:36.533Z,60.63
2018-06-25T19:25:05.085Z,60.29
2018-06-25T19:27:33.601Z,60.52
2018-06-25T19:30:02.193Z,60.59
2018-06-25T19:32:30.635Z,60.24
2018-06-25T19:34:59.185Z,60.43
2018-06-25T19:37:27.783Z,60.62
2018-06-25T19:39:56.205Z,60.81
2018-06-25T19:42:24.801Z,60.74
2018-06-25T19:44:53.179Z,61.34
2018-06-25T19:47:21.664Z,61.39
2018-06-25T19:49:50.306Z,61.67
2018-06-25T19:52:18.783Z,61.58
2018-06-25T19:54:47.241Z,61.42
2018-06-25T19:57:15.721Z,62.10
2018-06-25T19:59:44.339Z,61.87
2018-06-25T20:02:12.795Z,62.21
2018-06-25T20:04:41.257Z,62.30
2018-06-25T20:07:09.988Z,63.14
2018-06-25T20:09:38.580Z,62.85
2018-06-25T20:12:07.672Z,62.76
2018-06-25T20:14:36.219Z,63.25
2018-06-25T20:17:04.893Z,63.44
2018-06-25T20:19:33.607Z,63.56
2018-06-25T20:22:02.080Z,62.86
2018-06-25T20:24:30.423Z,63.24
2018-06-25T20:26:58.907Z,63.21
2018-06-25T20:29:27.466Z,63.39
2018-06-25T20:31:55.893Z,63.76
2018-06-25T20:34:24.765Z,64.37
2018-06-25T20:36:53.472Z,64.32
2018-06-25T20:39:21.871Z,63.95
2018-06-25T20:41:50.288Z,63.97
2018-06-25T20:44:18.723Z,63.99
2018-06-25T20:46:47.131Z,64.42
2018-06-25T20:49:15.755Z,64.19
2018-06-25T20:51:44.175Z,64.33
2018-06-25T20:54:12.635Z,64.40
2018-06-25T20:56:41.167Z,64.55
2018-06-25T20:59:09.675Z,64.25
2018-06-25T21:01:38.166Z,64.10
2018-06-25T21:04:06.607Z,64.87
2018-06-25T21:06:35.000Z,64.87
2018-06-25T21:09:03.535Z,65.01
2018-06-25T21:11:31.909Z,64.87
2018-06-25T21:14:00.311Z,64.81
2018-06-25T21:16:28.679Z,65.13
2018-06-25T21:18:57.038Z,64.39
2018-06-25T21:21:25.428Z,64.56
2018-06-25T21:23:53.970Z,64.58
2018-06-25T21:26:22.358Z,64.52
2018-06-25T21:28:56.253Z,65.21
2018-06-25T21:31:24.798Z,65.15
2018-06-25T21:33:53.134Z,65.34
2018-06-25T21:36:21.522Z,64.95
2018-06-25T21:38:49.962Z,64.71
2018-06-25T21:41:18.355Z,64.79
2018-06-25T21:43:46.775Z,65.00
2018-06-25T21:46:15.122Z,65.09
2018-06-25T21:48:43.564Z,65.14
2018-06-25T21:51:12.053Z,65.04
2018-06-25T21:53:40.419Z,65.55
2018-06-25T21:56:08.871Z,65.38
2018-06-25T21:58:37.241Z,65.75
2018-06-25T22:01:05.636Z,65.63
2018-06-25T22:03:34.059Z,65.14
2018-06-25T22:06:02.435Z,65.34
2018-06-25T22:08:30.816Z,65.32
2018-06-25T22:10:59.180Z,65.17
2018-06-25T22:13:27.547Z,65.58
2018-06-25T22:15:56.029Z,65.35
2018-06-25T22:18:24.385Z,65.33
2018-06-25T22:20:52.838Z,65.21
2018-06-25T22:23:21.234Z,65.96
2018-06-25T22:25:49.725Z,65.88
2018-06-25T22:28:18.135Z,65.70
2018-06-25T22:30:46.670Z,65.96
2018-06-25T22:33:15.033Z,66.63
2018-06-25T22:35:43.391Z,66.43
2018-06-25T22:38:11.834Z,66.91
2018-06-25T22:40:40.195Z,66.68
2018-06-25T22:43:08.662Z,67.16
2018-06-25T22:45:37.915Z,66.90
2018-06-25T22:48:06.371Z,66.33
2018-06-25T22:50:34.799Z,66.34
2018-06-25T22:53:03.228Z,66.89
2018-06-25T22:55:33.441Z,66.65
2018-06-25T22:58:01.881Z,66.74
2018-06-25T23:00:30.422Z,66.61
2018-06-25T23:02:58.820Z,66.65
2018-06-25T23:05:27.354Z,66.90
2018-06-25T23:07:55.710Z,66.75
2018-06-25T23:10:24.046Z,67.11
2018-06-25T23:12:52.396Z,67.12
2018-06-25T23:15:20.781Z,68.09
2018-06-25T23:17:49.184Z,67.81
2018-06-25T23:21:46.989Z,67.43
2018-06-25T23:24:15.342Z,67.53
2018-06-25T23:26:43.729Z,68.05
2018-06-25T23:29:12.106Z,68.04
2018-06-25T23:31:40.419Z,67.93
2018-06-25T23:34:08.770Z,68.05
2018-06-25T23:36:37.611Z,68.09
2018-06-25T23:39:08.881Z,68.55
2018-06-25T23:41:37.274Z,68.97
2018-06-25T23:44:05.674Z,68.51
2018-06-25T23:46:34.034Z,69.01
2018-06-25T23:49:02.406Z,69.37
2018-06-25T23:51:30.769Z,69.71
2018-06-25T23:53:59.134Z,69.84
2018-06-25T23:56:27.576Z,69.72
2018-06-25T23:58:56.002Z,70.13
